»·PEaware :: GTI250 KATL-KMIA

GTI250 :: KATL-KMIA

FLIGHT INFORMATION

Flight Status: Arrived
Operator:
Atlas Air
More flights by this operator :: More flights under this callsign
Pilot: Andrew J. (13363)
Aircraft: Boeing 747-8
(B748)
More flights by this aircraft type
Origin: KATL Hartsfield-Jackson Atlanta
United States
Destination: KMIA Miami Intl
United States
More flights between these airports :: More routes between these airports
Route: BANNG2 LUCKK HONID Q81 ENDEW JUULI SSCOT5
File this flight plan on PilotEdge
Remarks: RMK / SIMBRIEF
Altitude:
(Current/Filed)
37,000ft
Speed:
(Current/Filed)
503kts
Departed: 26-Sep-20 12:16 PM
Arrived: 26-Sep-20 01:35 PM
Distance/Time
Traveled:
517nm/1:19
Distance/Time
To Go:
Arrived

Flight Plot

Page will automatically refresh every two minutes.

Flight plan parsing failed; only flown route is shown


Map Options




Map Legend


Flown Route
Filed Route
Departure Airport
Arrival Airport
Navaid (VOR, NDB)
Fix

Horizontal Profiles

Position Reports

Time Latitude Longitude Heading Altitude Ground
Speed
26-Sep-20 11:27 33.626719 -84.429390 270 1016ft 0kts
26-Sep-20 11:28 33.626719 -84.429390 270 1016ft 0kts
26-Sep-20 11:29 33.626719 -84.429390 270 1016ft 0kts
26-Sep-20 11:30 33.626719 -84.429390 270 1016ft 0kts
26-Sep-20 11:31 33.626719 -84.429390 270 1016ft 0kts
26-Sep-20 11:32 33.626719 -84.429390 270 1016ft 0kts
26-Sep-20 11:33 33.626719 -84.429177 270 1016ft 2kts
26-Sep-20 11:34 33.626513 -84.428511 312 1016ft 2kts
26-Sep-20 11:35 33.626983 -84.428532 2 1016ft 0kts
26-Sep-20 11:36 33.626984 -84.428532 2 1016ft 0kts
26-Sep-20 11:37 33.626984 -84.428532 2 1016ft 0kts
26-Sep-20 11:38 33.626991 -84.428532 2 1016ft 0kts
26-Sep-20 11:39 33.627434 -84.428537 359 1016ft 3kts
26-Sep-20 11:40 33.628758 -84.428559 359 1016ft 6kts
26-Sep-20 11:41 33.630258 -84.429207 3 1024ft 1kts
26-Sep-20 11:42 33.630706 -84.428497 86 1028ft 6kts
26-Sep-20 11:43 33.630699 -84.425133 89 1027ft 12kts
26-Sep-20 11:44 33.630727 -84.420684 90 1026ft 12kts
26-Sep-20 11:45 33.630855 -84.418862 59 1027ft 0kts
26-Sep-20 11:46 33.630855 -84.418862 59 1027ft 0kts
26-Sep-20 11:47 33.630855 -84.418862 59 1027ft 0kts
26-Sep-20 11:48 33.630855 -84.418862 59 1027ft 0kts
26-Sep-20 11:49 33.630855 -84.418862 59 1027ft 0kts
26-Sep-20 11:50 33.630855 -84.418862 59 1027ft 0kts
26-Sep-20 11:51 33.630855 -84.418862 59 1027ft 0kts
26-Sep-20 11:52 33.630855 -84.418862 59 1027ft 0kts
26-Sep-20 11:53 33.630855 -84.418862 59 1027ft 0kts
26-Sep-20 11:54 33.630855 -84.418862 59 1027ft 0kts
26-Sep-20 11:55 33.630855 -84.418862 59 1027ft 0kts
26-Sep-20 11:56 33.630855 -84.418862 59 1027ft 0kts
26-Sep-20 11:57 33.630855 -84.418862 59 1027ft 0kts
26-Sep-20 11:58 33.630855 -84.418862 59 1027ft 0kts
26-Sep-20 11:59 33.630855 -84.418862 59 1027ft 0kts
26-Sep-20 12:00 33.630855 -84.418862 59 1027ft 0kts
26-Sep-20 12:01 33.630855 -84.418862 59 1027ft 0kts
26-Sep-20 12:02 33.630855 -84.418862 59 1027ft 0kts
26-Sep-20 12:03 33.630855 -84.418862 59 1027ft 0kts
26-Sep-20 12:04 33.630855 -84.418862 59 1027ft 0kts
26-Sep-20 12:05 33.630855 -84.418862 59 1027ft 0kts
26-Sep-20 12:06 33.630855 -84.418862 59 1027ft 0kts
26-Sep-20 12:07 33.630855 -84.418862 59 1027ft 0kts
26-Sep-20 12:08 33.630855 -84.418862 59 1027ft 0kts
26-Sep-20 12:09 33.630855 -84.418862 59 1027ft 0kts
26-Sep-20 12:10 33.630855 -84.418862 59 1027ft 0kts
26-Sep-20 12:11 33.630855 -84.418862 59 1027ft 0kts
26-Sep-20 12:12 33.630855 -84.418862 59 1027ft 0kts
26-Sep-20 12:13 33.631057 -84.418688 18 1026ft 3kts
26-Sep-20 12:14 33.631820 -84.418727 297 1026ft 0kts
26-Sep-20 12:15 33.631783 -84.433432 270 1032ft 145kts
26-Sep-20 12:16 33.624709 -84.496250 234 2912ft 214kts
26-Sep-20 12:17 33.568917 -84.543843 215 4213ft 267kts
26-Sep-20 12:18 33.505888 -84.593664 215 6637ft 276kts
26-Sep-20 12:19 33.440876 -84.644829 215 9178ft 283kts
26-Sep-20 12:20 33.366574 -84.659351 149 10989ft 327kts
26-Sep-20 12:21 33.279668 -84.594598 151 11756ft 403kts
26-Sep-20 12:22 33.177567 -84.532792 157 14624ft 419kts
26-Sep-20 12:23 33.069066 -84.475695 158 17380ft 436kts
26-Sep-20 12:24 32.954833 -84.419986 168 19688ft 450kts
26-Sep-20 12:26 32.829945 -84.408201 184 21941ft 456kts
26-Sep-20 12:27 32.701357 -84.411063 183 24015ft 471kts
26-Sep-20 12:28 32.568486 -84.408819 182 25912ft 485kts
26-Sep-20 12:29 32.431349 -84.406079 183 27678ft 498kts
26-Sep-20 12:30 32.291416 -84.405660 182 29385ft 508kts
26-Sep-20 12:31 32.150478 -84.399803 181 31617ft 503kts
26-Sep-20 12:32 32.011911 -84.395809 183 33483ft 496kts
26-Sep-20 12:33 31.874949 -84.393800 183 35001ft 491kts
26-Sep-20 12:34 31.738917 -84.392024 183 36261ft 487kts
26-Sep-20 12:35 31.604021 -84.383315 173 36993ft 485kts
26-Sep-20 12:36 31.472562 -84.346056 170 37002ft 495kts
26-Sep-20 12:37 31.338893 -84.308500 172 36978ft 493kts
26-Sep-20 12:38 31.206239 -84.275935 173 36979ft 493kts
26-Sep-20 12:38 31.105842 -84.251517 172 36979ft 493kts
26-Sep-20 12:40 30.953928 -84.214659 173 36979ft 494kts
26-Sep-20 12:41 30.818610 -84.182905 171 36977ft 497kts
26-Sep-20 12:42 30.686554 -84.146799 171 36974ft 496kts
26-Sep-20 12:42 30.576309 -84.119638 172 36975ft 496kts
26-Sep-20 12:43 30.442678 -84.088411 173 36973ft 496kts
26-Sep-20 12:45 30.293279 -84.025078 152 36976ft 508kts
26-Sep-20 12:46 30.175154 -83.938150 152 36973ft 509kts
26-Sep-20 12:46 30.074598 -83.870091 154 36973ft 507kts
26-Sep-20 12:47 29.952166 -83.791507 154 36964ft 507kts
26-Sep-20 12:48 29.829519 -83.713299 155 36956ft 506kts
26-Sep-20 12:49 29.707934 -83.632042 152 36957ft 508kts
26-Sep-20 12:50 29.587126 -83.551302 154 36958ft 507kts
26-Sep-20 12:51 29.465079 -83.472616 154 36959ft 508kts
26-Sep-20 12:52 29.342574 -83.394001 154 36959ft 507kts
26-Sep-20 12:53 29.231171 -83.325776 158 36949ft 505kts
26-Sep-20 12:54 29.091545 -83.261368 164 36952ft 501kts
26-Sep-20 12:55 28.959909 -83.208274 163 36953ft 498kts
26-Sep-20 12:56 28.829764 -83.154085 162 36953ft 498kts
26-Sep-20 12:57 28.699715 -83.098353 161 36953ft 498kts
26-Sep-20 12:58 28.570585 -83.041817 162 36953ft 498kts
26-Sep-20 12:59 28.439967 -82.987356 162 36955ft 499kts
26-Sep-20 13:00 28.308869 -82.933925 162 36952ft 500kts
26-Sep-20 13:01 28.182164 -82.867010 154 36955ft 504kts
26-Sep-20 13:02 28.056843 -82.796040 156 36956ft 504kts
26-Sep-20 13:03 27.928129 -82.730142 159 36967ft 514kts
26-Sep-20 13:04 27.792210 -82.676740 164 36951ft 517kts
26-Sep-20 13:05 27.654511 -82.627607 163 36946ft 518kts
26-Sep-20 13:06 27.517993 -82.576646 163 36920ft 519kts
26-Sep-20 13:07 27.381013 -82.525555 163 36920ft 519kts
26-Sep-20 13:08 27.243978 -82.474660 163 36937ft 519kts
26-Sep-20 13:09 27.106933 -82.423848 163 36948ft 519kts
26-Sep-20 13:10 26.969988 -82.373369 163 36949ft 521kts
26-Sep-20 13:11 26.834055 -82.323143 156 36927ft 519kts
26-Sep-20 13:12 26.743737 -82.210032 117 35976ft 500kts
26-Sep-20 13:13 26.636022 -82.113084 149 34902ft 508kts
26-Sep-20 13:14 26.513873 -82.031310 149 33130ft 512kts
26-Sep-20 13:15 26.391958 -81.949305 149 30934ft 516kts
26-Sep-20 13:16 26.273662 -81.857134 143 28710ft 521kts
26-Sep-20 13:17 26.173468 -81.747761 113 26462ft 499kts
26-Sep-20 13:18 26.116475 -81.607707 114 24293ft 488kts
26-Sep-20 13:19 26.058079 -81.473334 114 22160ft 473kts
26-Sep-20 13:20 26.010906 -81.338734 108 20097ft 459kts
26-Sep-20 13:21 25.970093 -81.206342 109 18088ft 445kts
26-Sep-20 13:22 25.928276 -81.078544 110 16139ft 433kts
26-Sep-20 13:23 25.884252 -80.961537 113 13705ft 378kts
26-Sep-20 13:24 25.845467 -80.862967 113 11101ft 324kts
26-Sep-20 13:25 25.818780 -80.772824 103 8510ft 296kts
26-Sep-20 13:26 25.802329 -80.690781 98 6050ft 278kts
26-Sep-20 13:27 25.792973 -80.610945 98 4159ft 244kts
26-Sep-20 13:28 25.785638 -80.542497 98 3051ft 206kts
26-Sep-20 13:29 25.780024 -80.488040 97 3039ft 170kts
26-Sep-20 13:30 25.781000 -80.435324 88 2244ft 169kts
26-Sep-20 13:31 25.783277 -80.383631 88 1336ft 167kts
26-Sep-20 13:32 25.785373 -80.332485 88 433ft 164kts
26-Sep-20 13:33 25.787077 -80.291016 88 21ft 47kts
26-Sep-20 13:34 25.789285 -80.286885 322 21ft 3kts
26-Sep-20 13:35 25.789472 -80.288444 262 21ft 12kts
26-Sep-20 13:36 25.788877 -80.294494 267 21ft 25kts
26-Sep-20 13:37 25.788573 -80.301838 267 21ft 21kts
26-Sep-20 13:38 25.789889 -80.305585 359 21ft 11kts
26-Sep-20 13:39 25.791216 -80.306178 268 21ft 4kts
26-Sep-20 13:40 25.791214 -80.306306 268 21ft 0kts
26-Sep-20 13:41 25.791214 -80.306306 268 21ft 0kts

Navigation Log

Ident Type
Flight plan parsing failed, navigation log unavailable